»·PEaware :: VOI771 KPHX-KPSP

VOI771 :: KPHX-KPSP

FLIGHT INFORMATION

Flight Status: Arrived
Operator: Volaris
More flights by this operator :: More flights under this callsign
Pilot: William H. (1753)
Aircraft: AIRBUS A320
(A320)
More flights by this aircraft type
Origin: KPHX Phoenix Sky Harbor Intl
United States
Destination: KPSP Palm Springs Intl
United States
More flights between these airports :: More routes between these airports
Route: +KEENS1 HRRBR CURIV J212 DECAS SBONO1
File this flight plan on PilotEdge
Remarks: PBN / A1B1C1D1O1S1 DOF / 180506 REG / N760FC EET / KZLA0017 OPR / VOI PER / C RMK / TCAS
Altitude:
(Current/Filed)
32,000ft
Speed:
(Current/Filed)
458kts
Departed: 06-May-18 05:27 PM
Arrived: 06-May-18 06:07 PM
Distance/Time
Traveled:
193nm/0:40
Distance/Time
To Go:
Arrived

Flight Plot

Page will automatically refresh every two minutes.

Flight plan parsing failed; only flown route is shown


Map Options




Map Legend


Flown Route
Filed Route
Departure Airport
Arrival Airport
Navaid (VOR, NDB)
Fix

Horizontal Profiles

Position Reports

Time Latitude Longitude Heading Altitude Ground
Speed
06-May-18 16:04 33.437099 -111.996275 269 1132ft 0kts
06-May-18 16:05 33.437099 -111.996275 269 1132ft 0kts
06-May-18 16:06 33.437099 -111.996275 269 1132ft 0kts
06-May-18 16:07 33.437099 -111.996275 269 1132ft 0kts
06-May-18 16:08 33.437099 -111.996275 269 1132ft 0kts
06-May-18 16:09 33.437099 -111.996275 269 1132ft 0kts
06-May-18 16:10 33.437099 -111.996275 269 1132ft 0kts
06-May-18 16:11 33.437099 -111.996275 269 1132ft 0kts
06-May-18 16:12 33.437099 -111.996275 269 1132ft 0kts
06-May-18 16:13 33.437099 -111.996275 269 1132ft 0kts
06-May-18 16:14 33.437099 -111.996275 269 1132ft 0kts
06-May-18 16:15 33.437099 -111.996275 269 1132ft 0kts
06-May-18 16:16 33.437099 -111.996275 269 1132ft 0kts
06-May-18 16:17 33.437099 -111.996275 269 1132ft 0kts
06-May-18 16:18 33.437099 -111.996275 269 1132ft 0kts
06-May-18 16:19 33.437099 -111.996275 269 1132ft 0kts
06-May-18 16:20 33.437099 -111.996275 269 1132ft 0kts
06-May-18 16:21 33.437099 -111.996275 269 1132ft 0kts
06-May-18 16:22 33.437099 -111.996275 269 1132ft 0kts
06-May-18 16:23 33.437099 -111.996275 269 1132ft 0kts
06-May-18 16:24 33.437099 -111.996275 269 1132ft 0kts
06-May-18 16:25 33.437099 -111.996275 269 1132ft 0kts
06-May-18 16:26 33.437099 -111.996275 269 1132ft 0kts
06-May-18 16:27 33.437099 -111.996275 269 1132ft 0kts
06-May-18 16:28 33.437099 -111.996275 269 1132ft 0kts
06-May-18 16:29 33.437099 -111.996275 269 1132ft 0kts
06-May-18 16:30 33.437099 -111.996275 269 1132ft 0kts
06-May-18 16:31 33.437099 -111.996275 269 1132ft 0kts
06-May-18 16:32 33.437099 -111.996275 269 1132ft 0kts
06-May-18 16:33 33.437099 -111.996275 269 1132ft 0kts
06-May-18 16:34 33.437099 -111.996275 269 1132ft 0kts
06-May-18 16:35 33.437099 -111.996275 269 1132ft 0kts
06-May-18 16:36 33.437099 -111.996275 269 1132ft 0kts
06-May-18 16:37 33.437099 -111.996275 269 1132ft 0kts
06-May-18 16:38 33.437099 -111.996275 269 1132ft 0kts
06-May-18 16:39 33.437099 -111.996275 269 1132ft 0kts
06-May-18 16:40 33.437099 -111.996275 269 1132ft 0kts
06-May-18 16:41 33.437099 -111.996275 269 1132ft 0kts
06-May-18 16:42 33.437099 -111.996275 269 1132ft 0kts
06-May-18 16:43 33.437099 -111.996275 269 1132ft 0kts
06-May-18 16:44 33.437099 -111.996275 269 1132ft 0kts
06-May-18 16:45 33.437099 -111.996275 269 1132ft 0kts
06-May-18 16:46 33.437099 -111.996275 269 1132ft 0kts
06-May-18 16:47 33.437099 -111.996275 269 1132ft 0kts
06-May-18 16:48 33.437099 -111.996275 269 1132ft 0kts
06-May-18 16:49 33.437099 -111.996275 269 1132ft 0kts
06-May-18 16:50 33.437223 -111.996124 224 1133ft 2kts
06-May-18 16:51 33.437450 -111.995797 312 1133ft 0kts
06-May-18 16:52 33.437351 -111.995774 359 1133ft 0kts
06-May-18 16:53 33.437351 -111.995774 359 1133ft 0kts
06-May-18 16:54 33.437351 -111.995774 359 1133ft 0kts
06-May-18 16:55 33.437351 -111.995774 359 1133ft 0kts
06-May-18 16:56 33.437351 -111.995774 359 1133ft 0kts
06-May-18 16:57 33.437351 -111.995774 359 1133ft 0kts
06-May-18 16:58 33.437351 -111.995774 359 1133ft 0kts
06-May-18 16:59 33.437351 -111.995774 359 1133ft 0kts
06-May-18 17:00 33.437351 -111.995774 359 1133ft 0kts
06-May-18 17:01 33.437351 -111.995774 359 1133ft 0kts
06-May-18 17:02 33.437351 -111.995774 359 1133ft 0kts
06-May-18 17:03 33.437351 -111.995774 359 1133ft 0kts
06-May-18 17:04 33.437351 -111.995774 359 1133ft 0kts
06-May-18 17:05 33.437351 -111.995774 359 1133ft 0kts
06-May-18 17:06 33.437351 -111.995774 359 1133ft 0kts
06-May-18 17:07 33.437351 -111.995774 359 1133ft 0kts
06-May-18 17:08 33.437351 -111.995774 359 1133ft 0kts
06-May-18 17:09 33.437351 -111.995774 359 1133ft 0kts
06-May-18 17:10 33.437351 -111.995774 359 1133ft 0kts
06-May-18 17:11 33.437351 -111.995774 359 1133ft 0kts
06-May-18 17:12 33.437351 -111.995774 359 1133ft 0kts
06-May-18 17:13 33.437351 -111.995774 359 1133ft 0kts
06-May-18 17:14 33.437351 -111.995774 359 1133ft 0kts
06-May-18 17:15 33.437351 -111.995774 359 1133ft 0kts
06-May-18 17:16 33.437351 -111.995774 359 1133ft 0kts
06-May-18 17:17 33.437351 -111.995774 359 1133ft 0kts
06-May-18 17:18 33.437351 -111.995774 359 1133ft 0kts
06-May-18 17:19 33.437351 -111.995774 359 1133ft 0kts
06-May-18 17:20 33.438210 -111.995776 359 1134ft 6kts
06-May-18 17:21 33.439683 -111.995203 82 1137ft 0kts
06-May-18 17:21 33.439683 -111.995203 82 1137ft 0kts
06-May-18 17:22 33.439683 -111.995203 82 1137ft 0kts
06-May-18 17:23 33.439683 -111.995203 82 1137ft 0kts
06-May-18 17:24 33.439792 -111.993418 91 1138ft 0kts
06-May-18 17:25 33.440220 -111.992305 0 1138ft 11kts
06-May-18 17:26 33.440581 -112.012353 269 1567ft 179kts
06-May-18 17:27 33.423986 -112.080281 249 6241ft 242kts
06-May-18 17:28 33.398678 -112.168781 250 10410ft 297kts
06-May-18 17:29 33.399622 -112.259074 278 14113ft 317kts
06-May-18 17:30 33.417156 -112.376405 278 15595ft 397kts
06-May-18 17:31 33.436991 -112.510995 278 18000ft 420kts
06-May-18 17:32 33.450618 -112.635936 269 20065ft 422kts
06-May-18 17:33 33.452279 -112.738097 269 26465ft 317kts
06-May-18 17:34 33.461458 -112.846270 281 27409ft 370kts
06-May-18 17:35 33.484009 -112.967091 280 28256ft 409kts
06-May-18 17:36 33.508353 -113.099135 281 28973ft 439kts
06-May-18 17:37 33.534908 -113.240710 281 29742ft 452kts
06-May-18 17:38 33.561495 -113.386086 281 31504ft 443kts
06-May-18 17:39 33.587603 -113.529619 281 31987ft 440kts
06-May-18 17:40 33.610872 -113.654149 281 31968ft 441kts
06-May-18 17:41 33.636295 -113.791286 281 31401ft 441kts
06-May-18 17:42 33.662707 -113.934669 280 29276ft 444kts
06-May-18 17:43 33.689297 -114.079797 280 25618ft 452kts
06-May-18 17:44 33.716452 -114.229170 280 23932ft 468kts
06-May-18 17:45 33.744251 -114.383216 280 23919ft 472kts
06-May-18 17:46 33.771184 -114.537003 277 23919ft 471kts
06-May-18 17:47 33.781677 -114.691984 272 23920ft 469kts
06-May-18 17:48 33.790414 -114.844301 272 23691ft 468kts
06-May-18 17:49 33.799100 -114.999328 272 22716ft 464kts
06-May-18 17:50 33.807494 -115.152631 272 21705ft 454kts
06-May-18 17:51 33.815404 -115.300570 272 18614ft 438kts
06-May-18 17:52 33.823321 -115.442387 276 15420ft 424kts
06-May-18 17:53 33.861635 -115.574261 290 12214ft 412kts
06-May-18 17:54 33.902028 -115.699929 289 10988ft 380kts
06-May-18 17:55 33.911145 -115.809953 263 10975ft 298kts
06-May-18 17:56 33.905287 -115.900257 263 10974ft 252kts
06-May-18 17:58 33.868288 -115.966298 221 10636ft 245kts
06-May-18 17:59 33.820400 -116.019846 222 9503ft 243kts
06-May-18 18:00 33.782479 -116.082727 273 8196ft 248kts
06-May-18 18:01 33.798962 -116.163047 281 7030ft 251kts
06-May-18 18:02 33.770362 -116.232583 227 5744ft 244kts
06-May-18 18:03 33.739380 -116.302504 257 4431ft 249kts
06-May-18 18:04 33.730519 -116.384048 261 3290ft 232kts
06-May-18 18:05 33.758310 -116.441099 320 2061ft 215kts
06-May-18 18:06 33.801355 -116.482479 324 847ft 173kts
06-May-18 18:07 33.827708 -116.505927 321 425ft 35kts
06-May-18 18:08 33.827726 -116.507158 179 426ft 9kts
06-May-18 18:09 33.823762 -116.506951 169 418ft 0kts
06-May-18 18:10 33.823762 -116.506951 169 418ft 0kts
06-May-18 18:11 33.437100 -111.996272 270 1132ft 0kts
06-May-18 18:12 33.909286 -115.838461 263 10975ft 280kts

Navigation Log

Ident Type
Flight plan parsing failed, navigation log unavailable